Time;durP1;ratioP1;P1;durP2;ratioP2;P2;SDS_P1;SDS_P2;PMS_P1;PMS_P2;Temp;Humidity;BMP_temperature;BMP_pressure;BME280_temperature;BME280_humidity;BME280_pressure;Samples;Min_cycle;Max_cycle;Signal;HPM_P1;HPM_P2
2024/04/09 00:01:17;;;;;;;;;;;;;;;18.02;48.02;96992.34;5476224;26;19935;-66
2024/04/09 00:04:07;;;;;;;;;;;;;;;17.97;48.18;96989.16;5476461;26;19997;-68
2024/04/09 00:06:57;;;;;;;;;;;;;;;17.97;49.10;96986.41;5484186;26;20720;-67
2024/04/09 00:09:51;;;;;;;;;;;;;;;17.94;48.91;96981.66;5480261;26;19944;-68
2024/04/09 00:12:43;;;;;;;;;;;;;;;17.91;49.81;96974.19;5476946;26;19939;-66
2024/04/09 00:15:31;;;;;;;;;;;;;;;17.86;49.48;96971.81;5473638;26;19932;-66
2024/04/09 00:18:24;;;;;;;;;;;;;;;17.79;49.84;96970.59;5480271;26;19928;-68
2024/04/09 00:21:12;;;;;;;;;;;;;;;17.75;50.55;96978.00;5455407;26;20646;-67
2024/04/09 00:24:02;;;;;;;;;;;;;;;17.70;49.61;96967.34;5497782;26;19934;-67
2024/04/09 00:26:52;;;;;;;;;;;;;;;17.71;49.41;96954.41;5484477;26;19936;-66
2024/04/09 00:29:42;;;;;;;;;;;;;;;17.71;49.33;96957.13;5488176;26;20430;-71
2024/04/09 00:32:30;;;;;;;;;;;;;;;17.73;48.77;96947.38;5483888;26;20696;-67
2024/04/09 00:35:21;;;;;;;;;;;;;;;17.70;48.01;96945.38;5478224;26;19967;-68
2024/04/09 00:38:08;;;;;;;;;;;;;;;17.71;48.25;96944.19;5479427;26;19928;-66
2024/04/09 00:40:59;;;;;;;;;;;;;;;17.70;48.24;96937.13;5480651;26;20292;-68
2024/04/09 00:43:48;;;;;;;;;;;;;;;17.69;48.12;96929.28;5479678;26;20446;-67
2024/04/09 00:46:38;;;;;;;;;;;;;;;17.69;48.56;96923.78;5480714;26;19928;-64
2024/04/09 00:49:27;;;;;;;;;;;;;;;17.75;48.63;96917.56;5470468;26;19935;-67
2024/04/09 00:52:17;;;;;;;;;;;;;;;17.71;48.47;96911.22;5474977;26;20439;-67
2024/04/09 00:55:04;;;;;;;;;;;;;;;17.62;49.21;96912.72;5472722;26;19931;-68
2024/04/09 00:57:56;;;;;;;;;;;;;;;17.56;49.32;96912.28;5472875;26;19932;-67
2024/04/09 01:00:46;;;;;;;;;;;;;;;17.60;48.94;96904.09;5480323;26;20475;-67
2024/04/09 01:03:37;;;;;;;;;;;;;;;17.62;48.87;96897.03;5481051;26;19939;-67
2024/04/09 01:06:25;;;;;;;;;;;;;;;17.60;48.71;96904.88;5469766;26;19928;-65
2024/04/09 01:09:15;;;;;;;;;;;;;;;17.61;49.25;96906.44;5472915;26;19928;-66
2024/04/09 01:12:03;;;;;;;;;;;;;;;17.70;49.50;96909.66;5477259;26;19968;-68
2024/04/09 01:14:53;;;;;;;;;;;;;;;17.58;48.58;96901.75;5467757;26;19997;-67
2024/04/09 01:17:43;;;;;;;;;;;;;;;17.58;48.96;96906.41;5472050;26;20195;-67
2024/04/09 01:20:32;;;;;;;;;;;;;;;17.60;49.30;96912.34;5479333;26;19927;-66
2024/04/09 01:23:23;;;;;;;;;;;;;;;17.57;49.49;96916.63;5470413;26;19928;-67
2024/04/09 01:26:14;;;;;;;;;;;;;;;17.53;49.15;96916.59;5479105;26;19968;-68
2024/04/09 01:29:01;;;;;;;;;;;;;;;17.54;50.06;96928.38;5485609;26;19935;-67
2024/04/09 01:31:52;;;;;;;;;;;;;;;17.54;50.50;96933.88;5473818;26;20467;-67
2024/04/09 01:34:44;;;;;;;;;;;;;;;17.49;51.03;96936.97;5468892;26;19952;-67
2024/04/09 01:37:34;;;;;;;;;;;;;;;17.42;51.24;96936.91;5475897;26;20368;-67
2024/04/09 01:40:24;;;;;;;;;;;;;;;17.36;51.18;96939.19;5465090;26;19932;-67
2024/04/09 01:43:13;;;;;;;;;;;;;;;17.31;51.06;96944.25;5472435;26;19939;-66
2024/04/09 01:46:01;;;;;;;;;;;;;;;17.25;51.44;96950.09;5464786;26;20381;-65
2024/04/09 01:48:51;;;;;;;;;;;;;;;17.07;51.76;96956.59;5472149;26;19934;-66
2024/04/09 01:51:38;;;;;;;;;;;;;;;17.12;52.43;96948.78;5460128;26;20357;-69
2024/04/09 01:54:28;;;;;;;;;;;;;;;17.14;52.77;96965.66;5464667;26;19940;-67
2024/04/09 01:57:18;;;;;;;;;;;;;;;17.09;53.63;96955.03;5477252;26;19939;-65
2024/04/09 02:00:19;;;;;;;;;;;;;;;16.90;53.11;96960.72;5471102;26;19932;-66
2024/04/09 02:03:08;;;;;;;;;;;;;;;16.89;53.34;96959.16;5474256;26;19928;-66
2024/04/09 02:05:59;;;;;;;;;;;;;;;16.75;53.65;96960.56;5471823;26;19935;-66
2024/04/09 02:08:47;;;;;;;;;;;;;;;16.77;54.28;96957.44;5467262;26;19935;-66
2024/04/09 02:11:37;;;;;;;;;;;;;;;16.70;54.30;96960.84;5470759;26;19935;-67
2024/04/09 02:14:27;;;;;;;;;;;;;;;16.69;54.61;96953.81;5467428;26;19956;-67
2024/04/09 02:17:17;;;;;;;;;;;;;;;16.69;54.39;96948.31;5473065;26;19955;-69
2024/04/09 02:20:09;;;;;;;;;;;;;;;16.73;54.42;96954.66;5470065;26;20370;-63
2024/04/09 02:22:59;;;;;;;;;;;;;;;16.67;54.13;96950.66;5472209;26;19939;-66
2024/04/09 02:25:50;;;;;;;;;;;;;;;16.76;54.82;96947.63;5470714;26;19946;-69
2024/04/09 02:28:37;;;;;;;;;;;;;;;16.76;55.08;96947.63;5474932;26;19939;-66
2024/04/09 02:31:30;;;;;;;;;;;;;;;16.75;55.33;96946.84;5447415;26;19935;-66
2024/04/09 02:34:20;;;;;;;;;;;;;;;16.74;55.00;96941.75;5474206;26;19960;-67
2024/04/09 02:37:10;;;;;;;;;;;;;;;16.68;55.52;96935.78;5446685;26;19936;-67
2024/04/09 02:39:58;;;;;;;;;;;;;;;16.65;55.98;96942.00;5472179;26;19932;-66
2024/04/09 02:42:49;;;;;;;;;;;;;;;16.59;55.55;96946.25;5470154;26;19932;-66
2024/04/09 02:45:37;;;;;;;;;;;;;;;16.61;56.11;96948.59;5466543;26;19933;-65
2024/04/09 02:48:30;;;;;;;;;;;;;;;16.56;55.75;96949.72;5477100;26;20495;-63
2024/04/09 02:51:17;;;;;;;;;;;;;;;16.41;56.14;96948.00;5452605;26;19928;-66
2024/04/09 02:54:07;;;;;;;;;;;;;;;16.36;56.42;96949.09;5467484;26;20401;-67
2024/04/09 02:56:54;;;;;;;;;;;;;;;16.45;56.42;96943.31;5477602;26;19928;-67
2024/04/09 02:59:44;;;;;;;;;;;;;;;16.43;56.80;96945.66;5463227;26;19928;-67
2024/04/09 03:02:31;;;;;;;;;;;;;;;16.39;57.36;96942.84;5473173;26;22258;-67
2024/04/09 03:05:30;;;;;;;;;;;;;;;16.29;57.63;96937.25;5472472;26;19949;-67
2024/04/09 03:08:17;;;;;;;;;;;;;;;16.28;57.13;96941.94;5450706;26;19936;-64
2024/04/09 03:11:12;;;;;;;;;;;;;;;16.24;57.65;96947.38;5465440;26;19940;-66
2024/04/09 03:13:59;;;;;;;;;;;;;;;16.25;57.84;96948.19;5469657;26;19960;-67
2024/04/09 03:16:49;;;;;;;;;;;;;;;16.08;57.48;96933.06;5458234;26;19928;-65
2024/04/09 03:19:36;;;;;;;;;;;;;;;16.05;57.77;96936.56;5470886;26;20364;-67
2024/04/09 03:22:29;;;;;;;;;;;;;;;16.10;57.49;96938.19;5475903;26;19932;-67
2024/04/09 03:25:16;;;;;;;;;;;;;;;16.07;56.49;96936.97;5464730;26;19928;-66
2024/04/09 03:28:06;;;;;;;;;;;;;;;16.15;56.49;96926.91;5459148;26;19952;-66
2024/04/09 03:30:56;;;;;;;;;;;;;;;16.19;56.17;96934.00;5469938;26;19928;-65
2024/04/09 03:33:46;;;;;;;;;;;;;;;16.21;56.42;96930.88;5469865;26;19928;-66
2024/04/09 03:36:33;;;;;;;;;;;;;;;16.19;56.20;96920.31;5473311;26;19964;-68
2024/04/09 03:39:25;;;;;;;;;;;;;;;16.25;56.49;96923.50;5451701;26;19928;-67
2024/04/09 03:42:18;;;;;;;;;;;;;;;16.18;56.10;96915.19;5468323;26;19932;-67
2024/04/09 03:45:09;;;;;;;;;;;;;;;16.24;56.19;96928.19;5427762;26;19944;-67
2024/04/09 03:48:00;;;;;;;;;;;;;;;16.18;56.32;96926.13;5471754;26;19935;-67
2024/04/09 03:50:49;;;;;;;;;;;;;;;16.18;56.26;96929.66;5476976;26;19936;-67
2024/04/09 03:53:39;;;;;;;;;;;;;;;16.13;55.94;96930.00;5464125;26;19976;-66
2024/04/09 03:56:29;;;;;;;;;;;;;;;16.12;55.82;96933.09;5469546;26;19943;-65
2024/04/09 03:59:19;;;;;;;;;;;;;;;15.96;56.00;96938.75;5477055;26;19935;-68
2024/04/09 04:02:06;;;;;;;;;;;;;;;16.03;55.44;96935.31;5464915;26;19940;-66
2024/04/09 04:04:56;;;;;;;;;;;;;;;15.99;55.65;96935.28;5473991;26;20286;-67
2024/04/09 04:07:44;;;;;;;;;;;;;;;16.02;54.99;96936.50;5479673;26;19932;-65
2024/04/09 04:10:34;;;;;;;;;;;;;;;16.02;55.53;96939.22;5480796;26;19935;-67
2024/04/09 04:13:25;;;;;;;;;;;;;;;16.10;54.79;96944.44;5460379;26;20428;-67
2024/04/09 04:16:15;;;;;;;;;;;;;;;16.07;54.74;96928.75;5481951;26;19928;-67
2024/04/09 04:19:02;;;;;;;;;;;;;;;16.10;54.68;96929.97;5460420;26;19934;-65
2024/04/09 04:21:52;;;;;;;;;;;;;;;16.11;54.57;96929.59;5441929;26;20026;-68
2024/04/09 04:24:39;;;;;;;;;;;;;;;16.39;54.16;96929.16;5459969;26;19979;-67
2024/04/09 04:27:29;;;;;;;;;;;;;;;16.15;53.99;96930.44;5474678;26;19936;-63
2024/04/09 04:30:19;;;;;;;;;;;;;;;16.43;53.58;96937.44;5459566;26;19932;-67
2024/04/09 04:33:09;;;;;;;;;;;;;;;16.26;53.80;96933.31;5473702;26;19934;-68
2024/04/09 04:35:59;;;;;;;;;;;;;;;16.30;53.27;96927.84;5463298;26;19936;-65
2024/04/09 04:38:47;;;;;;;;;;;;;;;16.43;53.02;96920.97;5479594;26;20432;-68
2024/04/09 04:41:36;;;;;;;;;;;;;;;16.56;52.42;96930.53;5474138;26;19997;-68
2024/04/09 04:44:24;;;;;;;;;;;;;;;16.71;51.85;96934.25;5481342;26;19975;-69
2024/04/09 04:47:17;;;;;;;;;;;;;;;16.75;52.52;96933.13;5477956;26;19928;-69
2024/04/09 04:50:04;;;;;;;;;;;;;;;16.82;51.56;96926.13;5459658;26;19955;-68
2024/04/09 04:52:54;;;;;;;;;;;;;;;16.90;50.86;96925.06;5468967;26;19928;-68
2024/04/09 04:55:41;;;;;;;;;;;;;;;16.91;51.21;96926.63;5475469;26;19940;-68
2024/04/09 04:58:31;;;;;;;;;;;;;;;17.07;49.76;96916.22;5461943;26;20353;-68
2024/04/09 05:01:18;;;;;;;;;;;;;;;16.99;50.29;96925.53;5458406;26;20435;-67
2024/04/09 05:04:10;;;;;;;;;;;;;;;16.99;49.80;96920.84;5469496;26;20434;-67
2024/04/09 05:06:58;;;;;;;;;;;;;;;17.11;49.72;96916.25;5470011;26;20000;-69
2024/04/09 05:09:48;;;;;;;;;;;;;;;17.12;49.72;96932.31;5459711;26;20257;-66
2024/04/09 05:12:36;;;;;;;;;;;;;;;17.19;49.28;96935.13;5466152;26;20370;-68
2024/04/09 05:15:26;;;;;;;;;;;;;;;17.43;49.18;96941.22;5465147;26;19957;-68
2024/04/09 05:18:18;;;;;;;;;;;;;;;17.36;49.03;96939.19;5463811;26;19997;-67
2024/04/09 05:21:08;;;;;;;;;;;;;;;17.43;48.89;96943.97;5471073;26;19928;-68
2024/04/09 05:23:58;;;;;;;;;;;;;;;17.50;48.77;96944.81;5475888;26;20008;-68
2024/04/09 05:26:48;;;;;;;;;;;;;;;17.58;48.73;96953.09;5455339;26;19947;-66
2024/04/09 05:29:35;;;;;;;;;;;;;;;17.62;48.44;96956.66;5475335;26;20445;-64
2024/04/09 05:32:25;;;;;;;;;;;;;;;17.71;49.06;96963.41;5452481;26;19952;-67
2024/04/09 05:35:14;;;;;;;;;;;;;;;17.67;48.97;96959.84;5453376;26;20254;-67
2024/04/09 05:38:07;;;;;;;;;;;;;;;17.71;49.47;96962.63;5463508;26;19928;-67
2024/04/09 05:40:54;;;;;;;;;;;;;;;17.63;49.00;96970.03;5471221;26;20002;-69
2024/04/09 05:43:45;;;;;;;;;;;;;;;17.64;48.92;96966.13;5459688;26;19978;-66
2024/04/09 05:46:32;;;;;;;;;;;;;;;17.70;47.95;96972.84;5477113;26;19928;-66
2024/04/09 05:49:22;;;;;;;;;;;;;;;17.81;48.59;96978.44;5457938;26;19931;-65
2024/04/09 05:52:10;;;;;;;;;;;;;;;17.78;48.69;96981.94;5476504;26;20005;-65
2024/04/09 05:55:03;;;;;;;;;;;;;;;17.72;48.72;96989.75;5469165;26;20257;-65
2024/04/09 05:57:50;;;;;;;;;;;;;;;17.75;48.90;96994.50;5487981;26;19978;-65
2024/04/09 06:00:41;;;;;;;;;;;;;;;17.87;47.46;97000.84;5452551;26;19929;-66
2024/04/09 06:03:28;;;;;;;;;;;;;;;17.90;48.12;96997.34;5470576;26;19940;-66
2024/04/09 06:06:18;;;;;;;;;;;;;;;18.00;47.34;97007.63;5479460;26;19940;-66
2024/04/09 06:09:06;;;;;;;;;;;;;;;18.06;46.95;97014.34;5475234;26;19985;-65
2024/04/09 06:11:58;;;;;;;;;;;;;;;18.09;46.89;97023.78;5471662;26;19943;-66
2024/04/09 06:14:46;;;;;;;;;;;;;;;17.99;46.81;97019.78;5480388;26;19939;-66
2024/04/09 06:17:36;;;;;;;;;;;;;;;18.04;46.19;97020.22;5453199;26;19939;-66
2024/04/09 06:20:23;;;;;;;;;;;;;;;18.23;46.06;97021.94;5475150;26;19935;-62
2024/04/09 06:23:13;;;;;;;;;;;;;;;18.25;46.58;97027.81;5466530;26;19932;-66
2024/04/09 06:26:01;;;;;;;;;;;;;;;18.25;46.12;97038.81;5472869;26;20331;-63
2024/04/09 06:28:55;;;;;;;;;;;;;;;18.33;46.77;97034.94;5467129;26;20274;-66
2024/04/09 06:31:43;;;;;;;;;;;;;;;18.34;46.82;97041.25;5466295;26;19940;-67
2024/04/09 06:34:32;;;;;;;;;;;;;;;18.35;46.75;97053.03;5467471;26;19928;-66
2024/04/09 06:37:20;;;;;;;;;;;;;;;18.39;47.35;97048.34;5481133;26;19935;-66
2024/04/09 06:40:10;;;;;;;;;;;;;;;18.38;47.30;97055.81;5456915;26;19929;-66
2024/04/09 06:43:00;;;;;;;;;;;;;;;18.46;47.22;97057.41;5460506;26;20246;-67
2024/04/09 06:45:49;;;;;;;;;;;;;;;18.43;46.67;97058.19;5448218;26;19935;-67
2024/04/09 06:48:39;;;;;;;;;;;;;;;18.40;46.95;97052.66;5447045;26;19978;-66
2024/04/09 06:51:27;;;;;;;;;;;;;;;18.65;45.64;97061.06;5448924;26;19934;-66
2024/04/09 06:54:17;;;;;;;;;;;;;;;18.58;46.32;97061.81;5469031;26;20700;-66
2024/04/09 06:57:05;;;;;;;;;;;;;;;18.58;45.75;97061.81;5457193;26;20721;-67
2024/04/09 06:59:55;;;;;;;;;;;;;;;18.72;45.23;97061.91;5451424;26;19935;-66
2024/04/09 07:02:45;;;;;;;;;;;;;;;18.77;45.59;97058.81;5470598;26;19943;-66
2024/04/09 07:05:34;;;;;;;;;;;;;;;18.96;44.42;97065.16;5470547;26;19943;-66
2024/04/09 07:08:22;;;;;;;;;;;;;;;18.94;46.25;97071.06;5461645;26;19936;-66
2024/04/09 07:11:12;;;;;;;;;;;;;;;19.09;43.65;97075.44;5458461;26;19928;-66
2024/04/09 07:14:02;;;;;;;;;;;;;;;19.14;42.77;97085.31;5445895;26;20374;-67
2024/04/09 07:16:52;;;;;;;;;;;;;;;19.16;42.74;97085.69;5447329;26;19935;-67
2024/04/09 07:19:43;;;;;;;;;;;;;;;19.11;42.49;97088.81;5461823;26;19928;-67
2024/04/09 07:22:33;;;;;;;;;;;;;;;19.11;42.59;97091.56;5466324;26;20510;-67
2024/04/09 07:25:22;;;;;;;;;;;;;;;19.05;43.21;97098.63;5456595;26;20358;-66
2024/04/09 07:28:11;;;;;;;;;;;;;;;19.06;43.01;97100.22;5473253;26;19997;-67
2024/04/09 07:31:02;;;;;;;;;;;;;;;19.11;43.12;97108.09;5464425;26;19935;-67
2024/04/09 07:33:54;;;;;;;;;;;;;;;19.22;42.77;97111.69;5471323;26;19997;-66
2024/04/09 07:36:44;;;;;;;;;;;;;;;19.32;42.64;97115.66;5401572;26;19977;-66
2024/04/09 07:39:36;;;;;;;;;;;;;;;19.37;42.55;97116.06;5451807;26;20297;-64
2024/04/09 07:42:24;;;;;;;;;;;;;;;19.49;41.94;97131.44;5454958;26;20382;-66
2024/04/09 07:45:13;;;;;;;;;;;;;;;19.57;41.51;97133.06;5433023;26;19967;-66
2024/04/09 07:48:01;;;;;;;;;;;;;;;19.73;41.47;97138.25;5442136;26;19975;-65
2024/04/09 07:50:51;;;;;;;;;;;;;;;19.72;41.43;97139.44;5447153;26;19935;-66
2024/04/09 07:53:41;;;;;;;;;;;;;;;19.78;41.20;97151.66;5463960;26;19927;-67
2024/04/09 07:56:31;;;;;;;;;;;;;;;19.85;41.45;97146.16;5456293;26;19928;-63
2024/04/09 07:59:18;;;;;;;;;;;;;;;19.95;41.48;97149.31;5456160;26;19933;-66
2024/04/09 08:02:08;;;;;;;;;;;;;;;19.82;41.73;97157.97;5444419;26;20029;-66
2024/04/09 08:04:55;;;;;;;;;;;;;;;19.81;41.02;97164.63;5470041;26;19955;-66
2024/04/09 08:07:46;;;;;;;;;;;;;;;19.94;41.28;97159.56;5448704;26;19936;-66
2024/04/09 08:10:36;;;;;;;;;;;;;;;19.95;41.25;97168.63;5449315;26;19939;-64
2024/04/09 08:13:26;;;;;;;;;;;;;;;19.84;41.62;97179.63;5457487;26;19939;-68
2024/04/09 08:16:16;;;;;;;;;;;;;;;19.75;41.87;97177.22;5472515;26;19935;-69
2024/04/09 08:19:03;;;;;;;;;;;;;;;19.75;42.38;97188.25;5449459;26;19936;-69
2024/04/09 08:21:54;;;;;;;;;;;;;;;19.64;42.43;97190.19;5472156;26;20374;-67
2024/04/09 08:24:44;;;;;;;;;;;;;;;19.55;43.01;97200.75;5455535;26;19960;-68
2024/04/09 08:27:38;;;;;;;;;;;;;;;19.64;42.53;97198.44;5460534;26;20310;-67
2024/04/09 08:30:26;;;;;;;;;;;;;;;19.66;42.73;97207.13;5465192;26;19957;-68
2024/04/09 08:33:17;;;;;;;;;;;;;;;19.76;42.77;97198.13;5454959;26;19944;-69
2024/04/09 08:36:05;;;;;;;;;;;;;;;19.72;42.79;97205.56;5465369;26;19954;-70
2024/04/09 08:38:54;;;;;;;;;;;;;;;19.66;42.87;97220.91;5448205;26;19996;-67
2024/04/09 08:41:42;;;;;;;;;;;;;;;19.73;43.51;97225.66;5468180;26;19934;-69
2024/04/09 08:44:34;;;;;;;;;;;;;;;19.79;42.69;97227.63;5469217;26;19935;-68
2024/04/09 08:47:22;;;;;;;;;;;;;;;19.74;42.81;97211.47;5451634;26;20278;-69
2024/04/09 08:50:13;;;;;;;;;;;;;;;19.70;42.81;97229.16;5455627;26;20001;-68
2024/04/09 08:53:00;;;;;;;;;;;;;;;19.66;42.54;97229.19;5470971;26;20253;-69
2024/04/09 08:55:50;;;;;;;;;;;;;;;19.76;42.49;97233.13;5467606;26;19934;-66
2024/04/09 08:58:38;;;;;;;;;;;;;;;19.94;42.67;97233.22;5443253;26;19940;-67
2024/04/09 09:01:33;;;;;;;;;;;;;;;20.04;41.91;97240.72;5464953;26;19940;-68
2024/04/09 09:04:21;;;;;;;;;;;;;;;19.97;42.09;97252.50;5445519;26;19982;-71
2024/04/09 09:07:14;;;;;;;;;;;;;;;20.07;42.26;97253.72;5434183;26;19960;-66
2024/04/09 09:10:03;;;;;;;;;;;;;;;19.94;42.14;97263.53;5454916;26;19935;-67
2024/04/09 09:12:58;;;;;;;;;;;;;;;20.03;42.61;97266.72;5456520;26;20350;-68
2024/04/09 09:15:53;;;;;;;;;;;;;;;20.17;42.60;97272.25;5465205;26;19985;-67
2024/04/09 09:18:45;;;;;;;;;;;;;;;20.38;42.29;97280.59;5462054;26;19940;-69
2024/04/09 09:21:32;;;;;;;;;;;;;;;20.58;41.59;97271.97;5462904;26;19935;-66
2024/04/09 09:24:26;;;;;;;;;;;;;;;20.68;41.35;97282.25;5459293;26;19940;-68
2024/04/09 09:27:13;;;;;;;;;;;;;;;20.83;41.11;97291.34;5473761;26;19935;-66
2024/04/09 09:30:03;;;;;;;;;;;;;;;21.21;40.61;97300.00;5467503;26;19928;-66
2024/04/09 09:32:53;;;;;;;;;;;;;;;21.38;39.90;97302.75;5446055;26;20025;-73
2024/04/09 09:35:44;;;;;;;;;;;;;;;21.10;40.71;97302.78;5468775;26;20296;-70
2024/04/09 09:38:34;;;;;;;;;;;;;;;20.83;40.94;97297.63;5459445;26;19941;-70
2024/04/09 09:41:22;;;;;;;;;;;;;;;20.78;41.53;97305.53;5476391;26;19932;-68
2024/04/09 09:44:11;;;;;;;;;;;;;;;20.87;41.20;97301.16;5467237;26;19936;-69
2024/04/09 09:46:59;;;;;;;;;;;;;;;20.65;41.05;97313.38;5462973;26;19993;-70
2024/04/09 09:49:49;;;;;;;;;;;;;;;20.61;41.70;97315.34;5480103;26;20446;-68
2024/04/09 09:52:45;;;;;;;;;;;;;;;20.54;42.32;97309.81;5467454;26;20227;-70
2024/04/09 09:55:35;;;;;;;;;;;;;;;20.67;41.97;97319.31;5478338;26;20293;-74
2024/04/09 09:58:25;;;;;;;;;;;;;;;20.59;42.37;97334.28;5480699;26;19947;-74
2024/04/09 10:01:12;;;;;;;;;;;;;;;20.45;42.49;97334.19;5461185;26;19940;-71
2024/04/09 10:04:02;;;;;;;;;;;;;;;20.28;42.79;97335.72;5466159;26;19995;-68
2024/04/09 10:06:53;;;;;;;;;;;;;;;20.14;43.56;97334.50;5476605;26;20368;-70
2024/04/09 10:09:46;;;;;;;;;;;;;;;20.23;43.96;97339.66;5450053;26;19928;-68
2024/04/09 10:12:37;;;;;;;;;;;;;;;20.20;43.57;97339.66;5447773;26;19936;-68
2024/04/09 10:15:25;;;;;;;;;;;;;;;20.12;43.93;97345.13;5461269;26;19959;-70
2024/04/09 10:18:20;;;;;;;;;;;;;;;19.99;44.14;97335.63;5477734;26;19952;-69
2024/04/09 10:21:14;;;;;;;;;;;;;;;19.95;45.01;97334.81;5482250;26;19935;-68
2024/04/09 10:24:04;;;;;;;;;;;;;;;19.88;45.10;97349.38;5464301;26;20361;-70
2024/04/09 10:26:57;;;;;;;;;;;;;;;20.02;44.90;97362.41;5478281;26;20365;-69
2024/04/09 10:29:51;;;;;;;;;;;;;;;20.02;45.24;97378.94;5461307;26;19929;-70
2024/04/09 10:32:41;;;;;;;;;;;;;;;20.08;45.27;97387.66;5455664;26;19928;-70
2024/04/09 10:35:29;;;;;;;;;;;;;;;20.20;45.17;97384.56;5463398;26;19929;-69
2024/04/09 10:38:19;;;;;;;;;;;;;;;20.24;45.18;97410.22;5460301;26;20427;-70
2024/04/09 10:41:06;;;;;;;;;;;;;;;20.32;45.36;97392.50;5454514;26;20261;-66
2024/04/09 10:43:59;;;;;;;;;;;;;;;20.67;44.99;97407.63;5460687;26;19946;-70
2024/04/09 10:46:46;;;;;;;;;;;;;;;20.63;45.18;97413.13;5469247;26;20272;-69
2024/04/09 10:49:36;;;;;;;;;;;;;;;20.32;45.34;97436.63;5461046;26;20294;-68
2024/04/09 10:52:23;;;;;;;;;;;;;;;20.29;45.96;97439.38;5453861;26;19928;-70
2024/04/09 10:55:15;;;;;;;;;;;;;;;20.16;46.37;97447.19;5461479;26;19929;-70
2024/04/09 10:58:02;;;;;;;;;;;;;;;20.00;46.27;97457.72;5458742;26;19942;-73
2024/04/09 11:00:55;;;;;;;;;;;;;;;19.74;47.24;97458.72;5451492;26;19934;-66
2024/04/09 11:03:42;;;;;;;;;;;;;;;19.74;48.36;97472.50;5445758;26;19941;-70
2024/04/09 11:06:34;;;;;;;;;;;;;;;19.41;49.19;97454.13;5462423;26;19975;-72
2024/04/09 11:09:21;;;;;;;;;;;;;;;19.06;50.66;97472.66;5468997;26;19936;-73
2024/04/09 11:12:11;;;;;;;;;;;;;;;18.83;51.81;97497.59;5470277;26;20339;-69
2024/04/09 11:15:01;;;;;;;;;;;;;;;18.33;52.89;97507.94;5475215;26;19936;-65
2024/04/09 11:17:54;;;;;;;;;;;;;;;17.87;54.10;97517.44;5473894;26;19928;-74
2024/04/09 11:20:42;;;;;;;;;;;;;;;17.75;54.70;97518.44;5466670;26;19935;-67
2024/04/09 11:23:33;;;;;;;;;;;;;;;17.63;55.05;97524.91;5466672;26;19985;-69
2024/04/09 11:26:21;;;;;;;;;;;;;;;17.40;55.70;97519.38;5479816;26;19928;-67
2024/04/09 11:29:20;;;;;;;;;;;;;;;17.44;55.87;97538.69;5470435;26;19964;-63
2024/04/09 11:32:09;;;;;;;;;;;;;;;17.22;56.28;97549.25;5465862;26;19950;-72
2024/04/09 11:35:01;;;;;;;;;;;;;;;17.19;56.46;97557.44;5475079;26;19928;-71
2024/04/09 11:37:51;;;;;;;;;;;;;;;17.13;56.22;97562.41;5449851;26;19940;-70
2024/04/09 11:40:40;;;;;;;;;;;;;;;17.15;55.98;97579.34;5467425;26;20374;-71
2024/04/09 11:43:28;;;;;;;;;;;;;;;17.25;55.49;97569.69;5471629;26;20279;-70
2024/04/09 11:46:18;;;;;;;;;;;;;;;17.07;55.21;97588.56;5469392;26;19929;-69
2024/04/09 11:49:05;;;;;;;;;;;;;;;16.92;55.13;97600.41;5471613;26;19932;-69
2024/04/09 11:51:57;;;;;;;;;;;;;;;16.56;55.03;97607.84;5451741;26;19935;-65
2024/04/09 11:54:47;;;;;;;;;;;;;;;16.65;54.45;97622.16;5457586;26;19947;-64
2024/04/09 11:57:35;;;;;;;;;;;;;;;16.57;53.63;97636.88;5478792;26;19928;-67
2024/04/09 12:00:26;;;;;;;;;;;;;;;16.47;52.59;97649.19;5450678;26;19974;-73
2024/04/09 12:03:13;;;;;;;;;;;;;;;16.24;52.23;97665.47;5440837;26;19935;-71
2024/04/09 12:06:06;;;;;;;;;;;;;;;15.84;51.49;97660.16;5462833;26;20270;-73
2024/04/09 12:08:56;;;;;;;;;;;;;;;15.72;51.78;97673.91;5474021;26;20418;-70
2024/04/09 12:11:47;;;;;;;;;;;;;;;15.59;51.19;97689.56;5452811;26;19935;-69
2024/04/09 12:14:34;;;;;;;;;;;;;;;15.34;51.16;97699.00;5457602;26;19932;-72
2024/04/09 12:17:24;;;;;;;;;;;;;;;15.27;51.22;97723.44;5466922;26;20358;-67
2024/04/09 12:20:12;;;;;;;;;;;;;;;15.18;51.32;97709.91;5443294;26;19928;-72
2024/04/09 12:23:03;;;;;;;;;;;;;;;15.27;50.75;97709.75;5465822;26;20896;-69
2024/04/09 12:25:53;;;;;;;;;;;;;;;15.36;50.83;97707.69;5479150;26;19931;-72
2024/04/09 12:28:43;;;;;;;;;;;;;;;15.19;50.71;97720.50;5473036;26;19975;-72
2024/04/09 12:31:30;;;;;;;;;;;;;;;15.08;51.22;97718.59;5469015;26;19940;-72
2024/04/09 12:34:21;;;;;;;;;;;;;;;15.02;51.29;97731.72;5477262;26;20377;-68
2024/04/09 12:37:09;;;;;;;;;;;;;;;14.85;52.02;97735.47;5450747;26;19929;-70
2024/04/09 12:39:59;;;;;;;;;;;;;;;14.86;51.79;97733.53;5469688;26;19947;-72
2024/04/09 12:42:55;;;;;;;;;;;;;;;14.90;52.20;97729.00;5468604;26;19934;-74
2024/04/09 12:45:43;;;;;;;;;;;;;;;14.81;52.12;97726.41;5449156;26;19940;-73
2024/04/09 12:48:32;;;;;;;;;;;;;;;14.76;52.06;97723.09;5466273;26;19997;-74
2024/04/09 12:51:23;;;;;;;;;;;;;;;14.87;51.84;97735.97;5449311;26;19964;-73
2024/04/09 12:54:10;;;;;;;;;;;;;;;15.07;51.39;97736.13;5435472;26;19933;-73
2024/04/09 12:57:00;;;;;;;;;;;;;;;14.75;51.85;97746.88;5448885;26;19929;-70
2024/04/09 12:59:50;;;;;;;;;;;;;;;14.81;51.45;97734.59;5446568;26;19940;-72
2024/04/09 13:02:55;;;;;;;;;;;;;;;14.91;50.72;97736.88;5476145;26;19978;-73
2024/04/09 13:05:42;;;;;;;;;;;;;;;14.82;51.08;97743.59;5451617;26;19935;-69
2024/04/09 13:08:32;;;;;;;;;;;;;;;14.82;51.75;97740.88;5444438;26;19928;-73
2024/04/09 13:11:20;;;;;;;;;;;;;;;14.92;51.21;97746.66;5475856;26;19936;-72
2024/04/09 13:14:10;;;;;;;;;;;;;;;14.92;51.29;97752.13;5469924;26;20358;-70
2024/04/09 13:17:00;;;;;;;;;;;;;;;14.85;50.91;97749.16;5471935;26;19928;-72
2024/04/09 13:19:52;;;;;;;;;;;;;;;15.01;50.32;97751.19;5452512;26;19928;-72
2024/04/09 13:22:40;;;;;;;;;;;;;;;14.98;50.34;97760.91;5458319;26;19936;-70
2024/04/09 13:25:30;;;;;;;;;;;;;;;14.67;50.58;97756.81;5459049;26;20014;-73
2024/04/09 13:28:17;;;;;;;;;;;;;;;14.63;50.68;97757.84;5481910;26;19928;-71
2024/04/09 13:31:07;;;;;;;;;;;;;;;14.52;51.03;97765.69;5467440;26;19935;-72
2024/04/09 13:33:57;;;;;;;;;;;;;;;14.59;50.28;97762.38;5476554;26;19940;-72
2024/04/09 13:36:47;;;;;;;;;;;;;;;14.64;50.14;97773.09;5474307;26;19939;-73
2024/04/09 13:39:37;;;;;;;;;;;;;;;14.60;50.20;97792.13;5481362;26;19928;-72
2024/04/09 13:42:28;;;;;;;;;;;;;;;14.61;50.20;97782.00;5464956;26;19944;-72
2024/04/09 13:45:18;;;;;;;;;;;;;;;14.65;48.82;97785.66;5471851;26;19995;-72
2024/04/09 13:48:05;;;;;;;;;;;;;;;14.54;49.11;97788.03;5485425;26;19935;-71
2024/04/09 13:50:58;;;;;;;;;;;;;;;14.45;49.55;97806.44;5456637;26;19963;-72
2024/04/09 13:53:45;;;;;;;;;;;;;;;14.50;49.68;97803.50;5463068;26;19960;-72
2024/04/09 13:56:35;;;;;;;;;;;;;;;14.39;49.74;97805.84;5461313;26;19942;-70
2024/04/09 13:59:22;;;;;;;;;;;;;;;14.28;50.08;97806.63;5454498;26;19928;-73
2024/04/09 14:02:14;;;;;;;;;;;;;;;14.26;50.10;97814.34;5449368;26;19928;-76
2024/04/09 14:05:06;;;;;;;;;;;;;;;14.23;50.11;97820.50;5503164;20;19928;-74
2024/04/09 14:08:01;;;;;;;;;;;;;;;14.30;50.20;97832.47;5479294;26;19932;-89
2024/04/09 14:10:51;;;;;;;;;;;;;;;14.32;49.98;97827.44;5460218;26;19940;-86
2024/04/09 14:13:38;;;;;;;;;;;;;;;14.30;50.29;97823.47;5439769;26;19936;-86
2024/04/09 14:16:29;;;;;;;;;;;;;;;14.48;49.55;97840.50;5482760;26;19935;-88
2024/04/09 14:19:19;;;;;;;;;;;;;;;14.38;49.47;97855.34;5489068;26;19940;-87
2024/04/09 14:22:09;;;;;;;;;;;;;;;14.31;49.63;97855.13;5456456;26;19928;-86
2024/04/09 14:25:01;;;;;;;;;;;;;;;14.22;49.58;97847.03;5467675;26;19996;-87
2024/04/09 14:27:49;;;;;;;;;;;;;;;14.03;50.05;97861.16;5513067;21;19920;-72
2024/04/09 14:30:44;;;;;;;;;;;;;;;14.09;49.48;97875.41;5358393;26;20013;-73
2024/04/09 14:33:31;;;;;;;;;;;;;;;13.82;49.88;97882.22;5369153;26;19941;-73
2024/04/09 14:36:21;;;;;;;;;;;;;;;13.88;50.05;97886.34;5358996;26;20002;-76
2024/04/09 14:39:11;;;;;;;;;;;;;;;13.73;49.53;97892.41;5342139;26;19958;-73
2024/04/09 14:42:03;;;;;;;;;;;;;;;13.52;50.44;97893.19;5348624;26;19936;-73
2024/04/09 14:44:50;;;;;;;;;;;;;;;13.49;49.86;97902.03;5362433;26;19930;-70